createdAt,value
2017-12-16T00:12:20.007Z,3.83
2017-12-16T00:17:20.828Z,3.80
2017-12-16T00:22:21.716Z,3.20
2017-12-16T00:27:22.584Z,3.83
2017-12-16T00:32:30.465Z,3.80
2017-12-16T00:37:31.286Z,3.27
2017-12-16T00:42:32.085Z,4.77
2017-12-16T00:47:34.919Z,5.10
2017-12-16T00:52:35.733Z,4.47
2017-12-16T00:57:36.543Z,6.43
2017-12-16T01:02:37.324Z,9.90
2017-12-16T01:07:38.123Z,5.13
2017-12-16T01:12:38.915Z,5.43
2017-12-16T01:17:39.730Z,6.20
2017-12-16T01:22:44.178Z,5.07
2017-12-16T01:27:44.978Z,4.37
2017-12-16T01:32:45.778Z,5.23
2017-12-16T01:37:58.771Z,4.70
2017-12-16T01:42:59.575Z,4.13
2017-12-16T01:48:00.381Z,4.43
2017-12-16T01:53:01.217Z,6.43
2017-12-16T01:58:02.017Z,4.70
2017-12-16T02:03:02.810Z,5.80
2017-12-16T02:08:03.659Z,4.90
2017-12-16T02:13:04.470Z,4.47
2017-12-16T02:18:08.341Z,5.60
2017-12-16T02:23:09.180Z,5.40
2017-12-16T02:28:10.016Z,5.07
2017-12-16T02:33:10.853Z,5.20
2017-12-16T02:38:11.654Z,4.67
2017-12-16T02:43:12.450Z,5.10
2017-12-16T02:48:13.317Z,5.00
2017-12-16T02:53:14.132Z,4.47
2017-12-16T02:58:14.955Z,4.00
2017-12-16T03:03:30.727Z,4.77
2017-12-16T03:08:31.557Z,5.00
2017-12-16T03:13:32.431Z,4.40
2017-12-16T03:18:33.228Z,5.03
2017-12-16T03:23:34.091Z,4.10
2017-12-16T03:28:34.921Z,5.50
2017-12-16T03:33:35.790Z,5.43
2017-12-16T03:38:37.314Z,5.90
2017-12-16T03:43:38.137Z,6.43
2017-12-16T03:48:38.925Z,6.77
2017-12-16T03:53:39.730Z,5.80
2017-12-16T03:58:40.565Z,5.30
2017-12-16T04:03:41.365Z,4.63
2017-12-16T04:08:42.173Z,5.63
2017-12-16T04:13:42.990Z,6.13
2017-12-16T04:18:43.820Z,5.60
2017-12-16T04:23:44.618Z,6.43
2017-12-16T04:28:45.433Z,5.77
2017-12-16T04:33:46.237Z,4.70
2017-12-16T04:38:47.004Z,5.50
2017-12-16T04:43:47.805Z,5.90
2017-12-16T04:48:48.633Z,5.03
2017-12-16T04:53:49.432Z,6.50
2017-12-16T04:58:50.264Z,6.50
2017-12-16T05:03:51.130Z,6.27
2017-12-16T05:08:51.908Z,6.10
2017-12-16T05:13:52.714Z,6.10
2017-12-16T05:18:53.540Z,6.90
2017-12-16T05:23:54.406Z,6.00
2017-12-16T05:28:55.217Z,6.53
2017-12-16T05:33:56.043Z,5.43
2017-12-16T05:38:56.893Z,6.13
2017-12-16T05:43:57.734Z,5.37
2017-12-16T05:48:58.554Z,5.70
2017-12-16T05:53:59.364Z,5.80
2017-12-16T05:59:00.161Z,6.63
2017-12-16T06:04:01.963Z,6.60
2017-12-16T06:09:02.820Z,5.80
2017-12-16T06:14:03.624Z,6.03
2017-12-16T06:19:04.408Z,6.23
2017-12-16T06:24:05.246Z,6.03
2017-12-16T06:29:06.060Z,6.30
2017-12-16T06:34:06.850Z,6.07
2017-12-16T06:39:07.666Z,6.20
2017-12-16T06:44:10.466Z,6.43
2017-12-16T06:49:11.272Z,6.57
2017-12-16T06:54:12.042Z,6.40
2017-12-16T06:59:12.837Z,6.90
2017-12-16T07:04:13.669Z,6.77
2017-12-16T07:09:14.481Z,7.20
2017-12-16T07:14:15.452Z,7.40
2017-12-16T07:19:16.373Z,8.23
2017-12-16T07:24:17.304Z,9.17
2017-12-16T07:29:19.248Z,11.50
2017-12-16T07:34:20.132Z,10.17
2017-12-16T07:39:21.055Z,9.00
2017-12-16T07:44:22.070Z,8.80
2017-12-16T07:49:22.905Z,8.10
2017-12-16T07:54:23.848Z,7.50
2017-12-16T07:59:24.713Z,8.50
2017-12-16T08:04:25.673Z,7.73
2017-12-16T08:09:26.611Z,7.33
2017-12-16T08:14:27.507Z,7.77
2017-12-16T08:19:28.336Z,7.93
2017-12-16T08:24:29.270Z,8.10
2017-12-16T08:29:30.188Z,8.57
2017-12-16T08:34:31.149Z,8.43
2017-12-16T08:39:38.056Z,7.80
2017-12-16T08:44:39.013Z,8.60
2017-12-16T08:49:39.874Z,8.13
2017-12-16T08:54:40.845Z,9.37
2017-12-16T08:59:41.692Z,8.20
2017-12-16T09:04:42.652Z,7.90
2017-12-16T09:09:43.517Z,8.43
2017-12-16T09:14:44.404Z,8.10
2017-12-16T09:19:45.266Z,9.03
2017-12-16T09:24:46.094Z,9.17
2017-12-16T09:29:47.053Z,8.30
2017-12-16T09:34:47.971Z,7.87
2017-12-16T09:39:48.927Z,8.50
2017-12-16T09:44:49.944Z,9.13
2017-12-16T09:49:50.916Z,9.20
2017-12-16T09:54:51.812Z,10.23
2017-12-16T09:59:52.802Z,10.20
2017-12-16T10:04:53.746Z,9.17
2017-12-16T10:09:54.674Z,9.37
2017-12-16T10:14:55.655Z,9.77
2017-12-16T10:19:56.655Z,8.80
2017-12-16T10:24:57.580Z,8.93
2017-12-16T10:30:01.985Z,9.10
2017-12-16T10:35:04.031Z,8.33
2017-12-16T10:40:04.961Z,8.10
2017-12-16T10:45:06.001Z,8.63
2017-12-16T10:50:10.074Z,10.33
2017-12-16T10:55:10.985Z,9.63
2017-12-16T11:00:12.216Z,9.23
2017-12-16T11:05:13.168Z,10.37
2017-12-16T11:10:14.149Z,10.60
2017-12-16T11:15:27.717Z,10.70
2017-12-16T11:20:28.665Z,10.17
2017-12-16T11:25:29.561Z,11.23
2017-12-16T11:30:30.549Z,10.30
2017-12-16T11:35:31.421Z,11.33
2017-12-16T11:40:32.390Z,10.23
2017-12-16T11:45:33.240Z,9.70
2017-12-16T11:50:34.222Z,9.23
2017-12-16T11:55:35.103Z,9.57
2017-12-16T12:00:36.038Z,9.80
2017-12-16T12:05:54.671Z,9.00
2017-12-16T12:10:55.618Z,9.10
2017-12-16T12:15:56.620Z,7.00
2017-12-16T12:20:57.543Z,7.50
2017-12-16T12:25:58.446Z,6.83
2017-12-16T12:30:59.587Z,8.00
2017-12-16T12:36:01.243Z,8.17
2017-12-16T12:41:02.158Z,7.90
2017-12-16T12:46:03.077Z,7.40
2017-12-16T12:51:04.033Z,8.30
2017-12-16T12:56:04.916Z,8.50
2017-12-16T13:01:05.990Z,8.73
2017-12-16T13:06:06.867Z,7.50
2017-12-16T13:11:07.746Z,8.17
2017-12-16T13:21:50.374Z,7.30
2017-12-16T13:26:51.304Z,7.20
2017-12-16T13:31:52.267Z,8.47
2017-12-16T13:36:53.178Z,8.93
2017-12-16T13:41:54.235Z,6.97
2017-12-16T13:46:55.111Z,8.23
2017-12-16T13:51:56.059Z,7.40
2017-12-16T13:56:56.899Z,7.10
2017-12-16T14:01:57.977Z,7.10
2017-12-16T14:06:58.964Z,7.43
2017-12-16T14:11:59.894Z,8.53
2017-12-16T14:17:01.410Z,8.77
2017-12-16T14:22:02.342Z,7.73
2017-12-16T14:27:03.308Z,9.03
2017-12-16T14:32:04.309Z,9.70
2017-12-16T14:37:05.266Z,12.50
2017-12-16T14:42:06.311Z,9.10
2017-12-16T14:47:13.049Z,8.30
2017-12-16T14:52:14.030Z,8.50
2017-12-16T14:57:14.871Z,9.80
2017-12-16T15:02:15.850Z,10.03
2017-12-16T15:07:17.758Z,9.37
2017-12-16T15:12:18.672Z,9.67
2017-12-16T15:17:19.643Z,10.20
2017-12-16T15:22:20.712Z,11.40
2017-12-16T15:27:21.701Z,9.33
2017-12-16T15:32:22.601Z,9.33
2017-12-16T15:37:23.553Z,9.20
2017-12-16T15:42:24.460Z,11.03
2017-12-16T15:47:25.883Z,9.07
2017-12-16T15:52:27.679Z,11.13
2017-12-16T15:57:29.405Z,13.10
2017-12-16T16:02:30.375Z,11.53
2017-12-16T16:07:31.382Z,10.00
2017-12-16T16:12:32.296Z,11.67
2017-12-16T16:17:33.270Z,12.07
2017-12-16T16:22:34.239Z,12.00
2017-12-16T16:27:35.194Z,11.20
2017-12-16T16:32:36.140Z,10.83
2017-12-16T16:37:37.177Z,11.67
2017-12-16T16:42:38.072Z,11.47
2017-12-16T16:47:39.178Z,10.90
2017-12-16T16:52:40.042Z,12.13
2017-12-16T16:57:51.905Z,10.57
2017-12-16T17:02:52.786Z,10.37
2017-12-16T17:08:08.157Z,11.20
2017-12-16T17:13:08.982Z,11.20
2017-12-16T17:18:09.928Z,9.90
2017-12-16T17:23:10.788Z,10.33
2017-12-16T17:28:12.524Z,11.43
2017-12-16T17:33:13.373Z,10.70
2017-12-16T17:38:39.017Z,10.30
2017-12-16T17:43:39.856Z,10.30
2017-12-16T17:48:40.725Z,12.80
2017-12-16T17:53:41.588Z,11.20
2017-12-16T17:58:49.525Z,10.90
2017-12-16T18:03:50.385Z,11.27
2017-12-16T18:08:54.984Z,11.00
2017-12-16T18:13:55.900Z,10.50
2017-12-16T18:19:00.742Z,11.40
2017-12-16T18:24:01.652Z,11.10
2017-12-16T18:29:02.652Z,10.17
2017-12-16T18:34:03.571Z,11.03
2017-12-16T18:39:19.710Z,11.80
2017-12-16T18:44:20.599Z,10.80
2017-12-16T18:49:28.742Z,11.60
2017-12-16T18:54:41.318Z,12.57
2017-12-16T18:59:42.148Z,11.53
2017-12-16T19:04:46.832Z,11.17
2017-12-16T19:09:47.692Z,12.50
2017-12-16T19:14:50.621Z,12.00
2017-12-16T19:20:02.128Z,11.03
2017-12-16T19:25:02.961Z,10.07
2017-12-16T19:30:03.863Z,13.13
2017-12-16T19:35:04.733Z,11.17
2017-12-16T19:40:05.564Z,11.07
2017-12-16T19:45:07.377Z,10.67
2017-12-16T19:50:08.283Z,11.10
2017-12-16T19:55:15.146Z,10.77
2017-12-16T20:00:17.992Z,13.30
2017-12-16T20:05:20.912Z,11.03
2017-12-16T20:10:21.803Z,10.23
2017-12-16T20:15:22.679Z,11.50
2017-12-16T20:20:29.635Z,12.37
2017-12-16T20:25:49.569Z,14.10
2017-12-16T20:31:05.377Z,12.33
2017-12-16T20:36:06.224Z,11.57
2017-12-16T20:41:07.126Z,13.83
2017-12-16T20:46:11.351Z,12.63
2017-12-16T20:51:13.256Z,12.43
2017-12-16T20:56:24.842Z,13.00
2017-12-16T21:01:25.712Z,12.10
2017-12-16T21:06:26.591Z,10.87
2017-12-16T21:11:52.085Z,16.53
2017-12-16T21:16:59.371Z,12.73
2017-12-16T21:22:00.240Z,12.97
2017-12-16T21:27:01.132Z,13.63
2017-12-16T21:32:02.015Z,13.73
2017-12-16T21:37:02.906Z,13.17
2017-12-16T21:42:03.811Z,15.00
2017-12-16T21:47:04.857Z,15.50
2017-12-16T21:52:05.703Z,15.03
2017-12-16T21:57:06.600Z,13.77
2017-12-16T22:02:07.430Z,13.03
2017-12-16T22:07:22.846Z,13.20
2017-12-16T22:12:23.705Z,13.50
2017-12-16T22:17:24.620Z,11.40
2017-12-16T22:22:32.170Z,12.37
2017-12-16T22:27:37.080Z,12.37
2017-12-16T22:32:41.203Z,12.87
2017-12-16T22:37:42.215Z,12.23
2017-12-16T22:42:49.714Z,13.20
2017-12-16T22:47:52.632Z,12.17
2017-12-16T22:52:55.547Z,12.43
2017-12-16T22:57:56.392Z,11.00
2017-12-16T23:02:57.252Z,11.53
2017-12-16T23:07:58.118Z,13.07
2017-12-16T23:12:58.980Z,11.07
2017-12-16T23:17:59.819Z,11.70
2017-12-16T23:23:00.656Z,11.17
2017-12-16T23:28:01.506Z,11.80
2017-12-16T23:33:02.351Z,11.60
2017-12-16T23:38:04.175Z,10.63
2017-12-16T23:43:04.988Z,10.67
2017-12-16T23:48:05.826Z,11.67
2017-12-16T23:53:06.617Z,11.20
2017-12-16T23:58:21.937Z,11.60
